createdAt,value
2023-04-03T00:02:35.518Z,99120
2023-04-03T00:14:35.337Z,99130
2023-04-03T00:26:35.437Z,99120
2023-04-03T00:38:35.371Z,99120
2023-04-03T00:50:35.597Z,99120
2023-04-03T01:02:35.483Z,99120
2023-04-03T01:14:35.404Z,99100
2023-04-03T01:26:35.783Z,99100
2023-04-03T01:38:35.386Z,99100
2023-04-03T01:50:35.678Z,99090
2023-04-03T02:02:35.388Z,99110
2023-04-03T02:14:35.421Z,99100
2023-04-03T02:26:35.408Z,99110
2023-04-03T02:38:35.327Z,99100
2023-04-03T02:50:35.656Z,99100
2023-04-03T03:02:35.394Z,99100
2023-04-03T03:14:35.425Z,99100
2023-04-03T03:26:35.423Z,99100
2023-04-03T03:38:35.444Z,99110
2023-04-03T03:50:35.312Z,99100
2023-04-03T04:02:35.660Z,99110
2023-04-03T04:14:35.336Z,99120
2023-04-03T04:26:35.369Z,99120
2023-04-03T04:38:35.335Z,99130
2023-04-03T04:50:35.435Z,99120
2023-04-03T05:02:35.386Z,99140
2023-04-03T05:14:35.322Z,99150
2023-04-03T05:26:35.313Z,99160
2023-04-03T05:38:35.456Z,99160
2023-04-03T05:50:35.320Z,99160
2023-04-03T06:02:35.356Z,99180
2023-04-03T06:14:35.332Z,99190
2023-04-03T06:26:35.318Z,99200
2023-04-03T06:38:35.381Z,99210
2023-04-03T06:50:35.308Z,99220
2023-04-03T07:02:35.448Z,99230
2023-04-03T07:14:35.424Z,99250
2023-04-03T07:26:35.413Z,99250
2023-04-03T07:38:35.411Z,99250
2023-04-03T07:50:35.318Z,99290
2023-04-03T08:02:35.337Z,99280
2023-04-03T08:14:35.489Z,99280
2023-04-03T08:26:35.332Z,99300
2023-04-03T08:38:35.331Z,99310
2023-04-03T08:50:36.279Z,99320
2023-04-03T09:02:35.459Z,99320
2023-04-03T09:14:35.332Z,99310
2023-04-03T09:26:35.313Z,99320
2023-04-03T09:38:35.325Z,99330
2023-04-03T09:50:35.445Z,99350
2023-04-03T10:02:35.425Z,99330
2023-04-03T10:14:35.393Z,99320
2023-04-03T10:26:35.319Z,99320
2023-04-03T10:38:35.369Z,99340
2023-04-03T10:50:35.428Z,99350
2023-04-03T11:02:35.396Z,99340
2023-04-03T11:14:35.431Z,99330
2023-04-03T11:26:35.323Z,99330
2023-04-03T11:38:35.312Z,99300
2023-04-03T11:50:35.452Z,99300
2023-04-03T12:02:47.507Z,99320
2023-04-03T12:14:35.431Z,99310
2023-04-03T12:26:45.879Z,99300
2023-04-03T12:38:35.340Z,99290
2023-04-03T12:50:35.422Z,99280
2023-04-03T13:02:35.534Z,99270
2023-04-03T13:14:35.375Z,99270
2023-04-03T13:26:35.372Z,99260
2023-04-03T13:38:35.305Z,99240
2023-04-03T13:50:35.475Z,99240
2023-04-03T14:02:35.432Z,99230
2023-04-03T14:14:35.450Z,99210
2023-04-03T14:26:35.318Z,99200
2023-04-03T14:38:35.347Z,99190
2023-04-03T14:50:35.342Z,99180
2023-04-03T15:02:35.613Z,99170
2023-04-03T15:14:37.120Z,99170
2023-04-03T15:26:35.373Z,99160
2023-04-03T15:38:35.311Z,99150
2023-04-03T15:50:35.477Z,99150
2023-04-03T16:02:35.520Z,99150
2023-04-03T16:14:35.366Z,99150
2023-04-03T16:26:35.421Z,99150
2023-04-03T16:38:35.351Z,99140
2023-04-03T16:50:35.483Z,99140
2023-04-03T17:06:17.765Z,99150
2023-04-03T17:18:17.793Z,99150
2023-04-03T17:30:17.715Z,99150
2023-04-03T17:42:17.783Z,99150
2023-04-03T17:54:17.785Z,99160
2023-04-03T18:06:17.788Z,99150
2023-04-03T18:18:17.778Z,99150
2023-04-03T18:30:17.834Z,99170
2023-04-03T18:42:17.690Z,99170
2023-04-03T18:54:17.672Z,99170
2023-04-03T19:06:17.788Z,99180
2023-04-03T19:18:17.778Z,99180
2023-04-03T19:30:17.685Z,99190
2023-04-03T19:42:17.682Z,99200
2023-04-03T19:54:17.702Z,99180
2023-04-03T20:06:17.677Z,99180
2023-04-03T20:18:17.965Z,99180
2023-04-03T20:30:17.789Z,99170
2023-04-03T20:42:17.676Z,99170
2023-04-03T20:54:17.681Z,99170
2023-04-03T21:06:17.804Z,99170
2023-04-03T21:18:17.667Z,99160
2023-04-03T21:30:17.782Z,99170
2023-04-03T21:42:17.683Z,99170
2023-04-03T21:54:17.686Z,99150
2023-04-03T22:06:17.692Z,99150
2023-04-03T22:18:17.685Z,99160
2023-04-03T22:30:17.768Z,99160
2023-04-03T22:42:17.777Z,99160
2023-04-03T22:54:17.788Z,99150
2023-04-03T23:06:17.776Z,99150
2023-04-03T23:18:17.722Z,99170
2023-04-03T23:30:17.745Z,99150
2023-04-03T23:42:17.856Z,99140
2023-04-03T23:54:17.797Z,99130
